sensor_id;sensor_type;location;lat;lon;timestamp;P1;durP1;ratioP1;P2;durP2;ratioP2
33714;SDS011;20043;50.998;4.754;2022-08-19T00:00:14;11.85;;;10.23;;
33714;SDS011;20043;50.998;4.754;2022-08-19T00:02:41;13.88;;;12.55;;
33714;SDS011;20043;50.998;4.754;2022-08-19T00:05:08;16.80;;;13.70;;
33714;SDS011;20043;50.998;4.754;2022-08-19T00:07:35;15.65;;;13.15;;
33714;SDS011;20043;50.998;4.754;2022-08-19T00:10:00;16.65;;;13.75;;
33714;SDS011;20043;50.998;4.754;2022-08-19T00:12:26;15.77;;;13.55;;
33714;SDS011;20043;50.998;4.754;2022-08-19T00:14:52;17.30;;;14.02;;
33714;SDS011;20043;50.998;4.754;2022-08-19T00:17:19;15.95;;;12.90;;
33714;SDS011;20043;50.998;4.754;2022-08-19T00:19:45;15.35;;;13.77;;
33714;SDS011;20043;50.998;4.754;2022-08-19T00:22:11;15.25;;;13.48;;
33714;SDS011;20043;50.998;4.754;2022-08-19T00:24:36;15.35;;;13.73;;
33714;SDS011;20043;50.998;4.754;2022-08-19T00:27:03;17.83;;;15.07;;
33714;SDS011;20043;50.998;4.754;2022-08-19T00:29:29;17.58;;;15.75;;
33714;SDS011;20043;50.998;4.754;2022-08-19T00:31:56;17.23;;;15.23;;
33714;SDS011;20043;50.998;4.754;2022-08-19T00:34:23;18.45;;;16.35;;
33714;SDS011;20043;50.998;4.754;2022-08-19T00:36:51;18.70;;;16.58;;
33714;SDS011;20043;50.998;4.754;2022-08-19T00:39:16;18.08;;;16.25;;
33714;SDS011;20043;50.998;4.754;2022-08-19T00:41:43;21.52;;;15.18;;
33714;SDS011;20043;50.998;4.754;2022-08-19T00:44:17;17.00;;;14.75;;
33714;SDS011;20043;50.998;4.754;2022-08-19T00:46:45;19.65;;;17.17;;
33714;SDS011;20043;50.998;4.754;2022-08-19T00:51:48;19.23;;;17.23;;
33714;SDS011;20043;50.998;4.754;2022-08-19T00:54:18;21.05;;;17.83;;
33714;SDS011;20043;50.998;4.754;2022-08-19T00:56:44;18.75;;;16.77;;
33714;SDS011;20043;50.998;4.754;2022-08-19T00:59:11;19.05;;;17.05;;
33714;SDS011;20043;50.998;4.754;2022-08-19T01:01:37;21.38;;;17.63;;
33714;SDS011;20043;50.998;4.754;2022-08-19T01:04:05;25.13;;;18.08;;
33714;SDS011;20043;50.998;4.754;2022-08-19T01:06:32;20.52;;;18.33;;
33714;SDS011;20043;50.998;4.754;2022-08-19T01:09:00;23.08;;;18.88;;
33714;SDS011;20043;50.998;4.754;2022-08-19T01:11:26;29.38;;;21.20;;
33714;SDS011;20043;50.998;4.754;2022-08-19T01:13:53;26.60;;;21.65;;
33714;SDS011;20043;50.998;4.754;2022-08-19T01:16:20;25.33;;;20.30;;
33714;SDS011;20043;50.998;4.754;2022-08-19T01:18:48;28.70;;;20.25;;
33714;SDS011;20043;50.998;4.754;2022-08-19T01:23:49;31.88;;;22.23;;
33714;SDS011;20043;50.998;4.754;2022-08-19T01:26:16;29.77;;;23.80;;
33714;SDS011;20043;50.998;4.754;2022-08-19T01:28:45;31.65;;;25.85;;
33714;SDS011;20043;50.998;4.754;2022-08-19T01:31:15;31.73;;;24.35;;
33714;SDS011;20043;50.998;4.754;2022-08-19T01:33:46;36.92;;;27.48;;
33714;SDS011;20043;50.998;4.754;2022-08-19T01:36:13;40.65;;;27.77;;
33714;SDS011;20043;50.998;4.754;2022-08-19T01:38:42;36.25;;;27.50;;
33714;SDS011;20043;50.998;4.754;2022-08-19T01:41:08;36.38;;;28.38;;
33714;SDS011;20043;50.998;4.754;2022-08-19T01:43:35;41.42;;;30.27;;
33714;SDS011;20043;50.998;4.754;2022-08-19T01:46:01;36.72;;;28.95;;
33714;SDS011;20043;50.998;4.754;2022-08-19T01:48:32;45.30;;;32.25;;
33714;SDS011;20043;50.998;4.754;2022-08-19T01:51:02;39.88;;;30.30;;
33714;SDS011;20043;50.998;4.754;2022-08-19T01:53:28;43.75;;;31.83;;
33714;SDS011;20043;50.998;4.754;2022-08-19T01:55:54;44.58;;;33.80;;
33714;SDS011;20043;50.998;4.754;2022-08-19T01:58:22;53.92;;;37.25;;
33714;SDS011;20043;50.998;4.754;2022-08-19T02:00:51;51.78;;;36.20;;
33714;SDS011;20043;50.998;4.754;2022-08-19T02:03:16;48.85;;;36.40;;
33714;SDS011;20043;50.998;4.754;2022-08-19T02:05:42;51.38;;;36.38;;
33714;SDS011;20043;50.998;4.754;2022-08-19T02:08:09;54.20;;;39.13;;
33714;SDS011;20043;50.998;4.754;2022-08-19T02:10:37;56.15;;;40.22;;
33714;SDS011;20043;50.998;4.754;2022-08-19T02:13:05;61.92;;;41.17;;
33714;SDS011;20043;50.998;4.754;2022-08-19T02:15:31;64.95;;;40.80;;
33714;SDS011;20043;50.998;4.754;2022-08-19T02:17:56;62.85;;;41.45;;
33714;SDS011;20043;50.998;4.754;2022-08-19T02:20:23;67.13;;;42.88;;
33714;SDS011;20043;50.998;4.754;2022-08-19T02:22:48;65.88;;;43.28;;
33714;SDS011;20043;50.998;4.754;2022-08-19T02:25:14;58.45;;;41.80;;
33714;SDS011;20043;50.998;4.754;2022-08-19T02:27:40;64.60;;;42.15;;
33714;SDS011;20043;50.998;4.754;2022-08-19T02:30:07;67.07;;;43.60;;
33714;SDS011;20043;50.998;4.754;2022-08-19T02:32:36;69.70;;;42.53;;
33714;SDS011;20043;50.998;4.754;2022-08-19T02:35:02;66.40;;;42.05;;
33714;SDS011;20043;50.998;4.754;2022-08-19T02:37:28;60.78;;;42.65;;
33714;SDS011;20043;50.998;4.754;2022-08-19T02:40:12;67.13;;;43.60;;
33714;SDS011;20043;50.998;4.754;2022-08-19T02:42:38;65.43;;;42.92;;
33714;SDS011;20043;50.998;4.754;2022-08-19T02:45:05;60.88;;;41.45;;
33714;SDS011;20043;50.998;4.754;2022-08-19T02:47:32;61.30;;;42.00;;
33714;SDS011;20043;50.998;4.754;2022-08-19T02:50:00;59.75;;;41.25;;
33714;SDS011;20043;50.998;4.754;2022-08-19T02:52:27;61.85;;;41.90;;
33714;SDS011;20043;50.998;4.754;2022-08-19T02:54:53;58.22;;;40.88;;
33714;SDS011;20043;50.998;4.754;2022-08-19T02:57:21;59.53;;;41.35;;
33714;SDS011;20043;50.998;4.754;2022-08-19T02:59:47;68.18;;;42.55;;
33714;SDS011;20043;50.998;4.754;2022-08-19T03:02:13;55.35;;;40.90;;
33714;SDS011;20043;50.998;4.754;2022-08-19T03:04:39;56.25;;;39.80;;
33714;SDS011;20043;50.998;4.754;2022-08-19T03:07:04;57.05;;;39.80;;
33714;SDS011;20043;50.998;4.754;2022-08-19T03:09:30;54.08;;;38.33;;
33714;SDS011;20043;50.998;4.754;2022-08-19T03:11:55;57.53;;;39.47;;
33714;SDS011;20043;50.998;4.754;2022-08-19T03:14:21;58.20;;;40.50;;
33714;SDS011;20043;50.998;4.754;2022-08-19T03:16:49;57.30;;;39.95;;
33714;SDS011;20043;50.998;4.754;2022-08-19T03:19:17;57.95;;;40.58;;
33714;SDS011;20043;50.998;4.754;2022-08-19T03:21:44;60.42;;;40.80;;
33714;SDS011;20043;50.998;4.754;2022-08-19T03:24:11;66.78;;;43.58;;
33714;SDS011;20043;50.998;4.754;2022-08-19T03:26:39;64.70;;;42.58;;
33714;SDS011;20043;50.998;4.754;2022-08-19T03:29:08;66.50;;;43.20;;
33714;SDS011;20043;50.998;4.754;2022-08-19T03:31:36;68.22;;;43.95;;
33714;SDS011;20043;50.998;4.754;2022-08-19T03:34:02;63.50;;;42.80;;
33714;SDS011;20043;50.998;4.754;2022-08-19T03:36:28;66.53;;;42.72;;
33714;SDS011;20043;50.998;4.754;2022-08-19T03:38:55;65.32;;;41.75;;
33714;SDS011;20043;50.998;4.754;2022-08-19T03:41:24;67.57;;;44.08;;
33714;SDS011;20043;50.998;4.754;2022-08-19T03:43:52;65.20;;;44.22;;
33714;SDS011;20043;50.998;4.754;2022-08-19T03:46:19;63.58;;;40.83;;
33714;SDS011;20043;50.998;4.754;2022-08-19T03:48:47;61.70;;;41.38;;
33714;SDS011;20043;50.998;4.754;2022-08-19T03:51:19;66.47;;;42.08;;
33714;SDS011;20043;50.998;4.754;2022-08-19T03:53:47;62.80;;;41.42;;
33714;SDS011;20043;50.998;4.754;2022-08-19T03:56:13;67.78;;;42.67;;
33714;SDS011;20043;50.998;4.754;2022-08-19T03:58:40;65.70;;;41.38;;
33714;SDS011;20043;50.998;4.754;2022-08-19T04:01:10;64.50;;;41.17;;
33714;SDS011;20043;50.998;4.754;2022-08-19T04:03:38;68.90;;;42.63;;
33714;SDS011;20043;50.998;4.754;2022-08-19T04:06:11;63.25;;;40.78;;
33714;SDS011;20043;50.998;4.754;2022-08-19T04:08:42;67.88;;;42.03;;
33714;SDS011;20043;50.998;4.754;2022-08-19T04:11:10;69.18;;;42.85;;
33714;SDS011;20043;50.998;4.754;2022-08-19T04:13:38;59.35;;;40.42;;
33714;SDS011;20043;50.998;4.754;2022-08-19T04:16:05;66.05;;;41.28;;
33714;SDS011;20043;50.998;4.754;2022-08-19T04:18:32;69.18;;;41.88;;
33714;SDS011;20043;50.998;4.754;2022-08-19T04:20:58;68.15;;;40.97;;
33714;SDS011;20043;50.998;4.754;2022-08-19T04:23:25;64.82;;;41.92;;
33714;SDS011;20043;50.998;4.754;2022-08-19T04:25:53;65.50;;;39.70;;
33714;SDS011;20043;50.998;4.754;2022-08-19T04:28:18;62.78;;;37.95;;
33714;SDS011;20043;50.998;4.754;2022-08-19T04:30:45;62.20;;;39.05;;
33714;SDS011;20043;50.998;4.754;2022-08-19T04:33:13;56.67;;;36.47;;
33714;SDS011;20043;50.998;4.754;2022-08-19T04:35:48;55.55;;;36.92;;
33714;SDS011;20043;50.998;4.754;2022-08-19T04:38:16;49.20;;;35.97;;
33714;SDS011;20043;50.998;4.754;2022-08-19T04:40:44;56.33;;;35.85;;
33714;SDS011;20043;50.998;4.754;2022-08-19T04:43:30;58.53;;;38.47;;
33714;SDS011;20043;50.998;4.754;2022-08-19T04:45:56;58.35;;;38.17;;
33714;SDS011;20043;50.998;4.754;2022-08-19T04:48:23;58.40;;;37.95;;
33714;SDS011;20043;50.998;4.754;2022-08-19T04:50:52;59.05;;;36.85;;
33714;SDS011;20043;50.998;4.754;2022-08-19T04:53:23;58.35;;;37.45;;
33714;SDS011;20043;50.998;4.754;2022-08-19T04:55:50;56.28;;;37.45;;
33714;SDS011;20043;50.998;4.754;2022-08-19T04:58:16;58.45;;;36.47;;
33714;SDS011;20043;50.998;4.754;2022-08-19T05:00:42;57.22;;;36.67;;
33714;SDS011;20043;50.998;4.754;2022-08-19T05:03:08;57.38;;;36.75;;
33714;SDS011;20043;50.998;4.754;2022-08-19T05:05:37;56.88;;;35.25;;
33714;SDS011;20043;50.998;4.754;2022-08-19T05:08:05;55.70;;;35.20;;
33714;SDS011;20043;50.998;4.754;2022-08-19T05:10:30;48.72;;;32.85;;
33714;SDS011;20043;50.998;4.754;2022-08-19T05:12:56;51.22;;;32.50;;
33714;SDS011;20043;50.998;4.754;2022-08-19T05:15:22;53.42;;;31.35;;
33714;SDS011;20043;50.998;4.754;2022-08-19T05:17:48;44.08;;;30.20;;
33714;SDS011;20043;50.998;4.754;2022-08-19T05:20:32;44.78;;;28.85;;
33714;SDS011;20043;50.998;4.754;2022-08-19T05:23:16;45.70;;;28.95;;
33714;SDS011;20043;50.998;4.754;2022-08-19T05:25:42;39.35;;;27.13;;
33714;SDS011;20043;50.998;4.754;2022-08-19T05:28:07;40.05;;;25.98;;
33714;SDS011;20043;50.998;4.754;2022-08-19T05:30:33;41.30;;;27.13;;
33714;SDS011;20043;50.998;4.754;2022-08-19T05:32:59;41.35;;;26.55;;
33714;SDS011;20043;50.998;4.754;2022-08-19T05:35:25;36.60;;;25.75;;
33714;SDS011;20043;50.998;4.754;2022-08-19T05:37:50;40.20;;;24.50;;
33714;SDS011;20043;50.998;4.754;2022-08-19T05:40:19;39.90;;;24.90;;
33714;SDS011;20043;50.998;4.754;2022-08-19T05:42:44;44.53;;;25.27;;
33714;SDS011;20043;50.998;4.754;2022-08-19T05:45:11;33.03;;;23.50;;
33714;SDS011;20043;50.998;4.754;2022-08-19T05:47:36;34.85;;;24.35;;
33714;SDS011;20043;50.998;4.754;2022-08-19T05:50:02;31.30;;;22.45;;
33714;SDS011;20043;50.998;4.754;2022-08-19T05:52:28;36.47;;;22.92;;
33714;SDS011;20043;50.998;4.754;2022-08-19T05:54:55;36.22;;;22.23;;
33714;SDS011;20043;50.998;4.754;2022-08-19T05:57:21;33.03;;;22.02;;
33714;SDS011;20043;50.998;4.754;2022-08-19T05:59:47;32.67;;;21.25;;
33714;SDS011;20043;50.998;4.754;2022-08-19T06:02:16;29.58;;;20.42;;
33714;SDS011;20043;50.998;4.754;2022-08-19T06:04:42;28.73;;;20.10;;
33714;SDS011;20043;50.998;4.754;2022-08-19T06:07:07;39.03;;;21.45;;
33714;SDS011;20043;50.998;4.754;2022-08-19T06:09:33;32.33;;;20.85;;
33714;SDS011;20043;50.998;4.754;2022-08-19T06:12:00;37.00;;;20.48;;
33714;SDS011;20043;50.998;4.754;2022-08-19T06:14:31;31.25;;;19.52;;
33714;SDS011;20043;50.998;4.754;2022-08-19T06:16:59;31.05;;;19.23;;
33714;SDS011;20043;50.998;4.754;2022-08-19T06:19:26;36.47;;;18.05;;
33714;SDS011;20043;50.998;4.754;2022-08-19T06:21:55;26.95;;;18.35;;
33714;SDS011;20043;50.998;4.754;2022-08-19T06:24:22;28.73;;;18.73;;
33714;SDS011;20043;50.998;4.754;2022-08-19T06:26:49;30.50;;;18.25;;
33714;SDS011;20043;50.998;4.754;2022-08-19T06:29:18;29.08;;;17.63;;
33714;SDS011;20043;50.998;4.754;2022-08-19T06:31:47;29.95;;;18.42;;
33714;SDS011;20043;50.998;4.754;2022-08-19T06:34:14;30.65;;;19.13;;
33714;SDS011;20043;50.998;4.754;2022-08-19T06:36:42;35.25;;;19.85;;
33714;SDS011;20043;50.998;4.754;2022-08-19T06:39:10;28.60;;;18.35;;
33714;SDS011;20043;50.998;4.754;2022-08-19T06:41:38;29.13;;;17.42;;
33714;SDS011;20043;50.998;4.754;2022-08-19T06:44:09;24.67;;;16.05;;
33714;SDS011;20043;50.998;4.754;2022-08-19T06:46:36;22.77;;;16.35;;
33714;SDS011;20043;50.998;4.754;2022-08-19T06:49:02;26.02;;;15.82;;
33714;SDS011;20043;50.998;4.754;2022-08-19T06:51:28;27.17;;;16.52;;
33714;SDS011;20043;50.998;4.754;2022-08-19T06:53:56;25.88;;;16.50;;
33714;SDS011;20043;50.998;4.754;2022-08-19T06:56:24;26.77;;;16.13;;
33714;SDS011;20043;50.998;4.754;2022-08-19T06:58:58;25.92;;;15.57;;
33714;SDS011;20043;50.998;4.754;2022-08-19T07:01:25;26.45;;;15.95;;
33714;SDS011;20043;50.998;4.754;2022-08-19T07:03:51;28.08;;;16.45;;
33714;SDS011;20043;50.998;4.754;2022-08-19T07:06:17;26.13;;;16.25;;
33714;SDS011;20043;50.998;4.754;2022-08-19T07:08:45;26.55;;;14.68;;
33714;SDS011;20043;50.998;4.754;2022-08-19T07:11:13;27.70;;;14.82;;
33714;SDS011;20043;50.998;4.754;2022-08-19T07:13:40;28.75;;;14.30;;
33714;SDS011;20043;50.998;4.754;2022-08-19T07:16:09;24.48;;;15.00;;
33714;SDS011;20043;50.998;4.754;2022-08-19T07:18:37;23.85;;;14.05;;
33714;SDS011;20043;50.998;4.754;2022-08-19T07:21:11;25.90;;;13.88;;
33714;SDS011;20043;50.998;4.754;2022-08-19T07:23:49;22.98;;;12.70;;
33714;SDS011;20043;50.998;4.754;2022-08-19T07:26:20;23.48;;;13.48;;
33714;SDS011;20043;50.998;4.754;2022-08-19T07:28:48;22.30;;;13.50;;
33714;SDS011;20043;50.998;4.754;2022-08-19T07:31:17;23.15;;;12.48;;
33714;SDS011;20043;50.998;4.754;2022-08-19T07:33:45;19.92;;;12.45;;
33714;SDS011;20043;50.998;4.754;2022-08-19T07:36:12;21.90;;;12.23;;
33714;SDS011;20043;50.998;4.754;2022-08-19T07:38:41;30.13;;;11.32;;
33714;SDS011;20043;50.998;4.754;2022-08-19T07:41:09;17.40;;;10.88;;
33714;SDS011;20043;50.998;4.754;2022-08-19T07:43:38;16.33;;;10.30;;
33714;SDS011;20043;50.998;4.754;2022-08-19T07:46:04;17.08;;;9.25;;
33714;SDS011;20043;50.998;4.754;2022-08-19T07:48:38;17.58;;;9.05;;
33714;SDS011;20043;50.998;4.754;2022-08-19T07:51:06;14.95;;;8.20;;
33714;SDS011;20043;50.998;4.754;2022-08-19T07:53:33;17.75;;;8.13;;
33714;SDS011;20043;50.998;4.754;2022-08-19T07:56:01;13.25;;;6.93;;
33714;SDS011;20043;50.998;4.754;2022-08-19T07:58:36;13.38;;;6.90;;
33714;SDS011;20043;50.998;4.754;2022-08-19T08:01:04;18.38;;;7.43;;
33714;SDS011;20043;50.998;4.754;2022-08-19T08:03:31;12.57;;;6.93;;
33714;SDS011;20043;50.998;4.754;2022-08-19T08:06:15;13.63;;;7.00;;
33714;SDS011;20043;50.998;4.754;2022-08-19T08:09:00;11.85;;;6.50;;
33714;SDS011;20043;50.998;4.754;2022-08-19T08:11:44;10.82;;;5.80;;
33714;SDS011;20043;50.998;4.754;2022-08-19T08:14:14;13.93;;;5.90;;
33714;SDS011;20043;50.998;4.754;2022-08-19T08:17:00;11.98;;;6.00;;
33714;SDS011;20043;50.998;4.754;2022-08-19T08:19:26;11.25;;;5.20;;
33714;SDS011;20043;50.998;4.754;2022-08-19T08:21:57;12.30;;;6.75;;
33714;SDS011;20043;50.998;4.754;2022-08-19T08:24:25;11.30;;;6.10;;
33714;SDS011;20043;50.998;4.754;2022-08-19T08:26:52;11.15;;;5.40;;
33714;SDS011;20043;50.998;4.754;2022-08-19T08:29:18;10.43;;;5.85;;
33714;SDS011;20043;50.998;4.754;2022-08-19T08:31:44;9.80;;;5.75;;
33714;SDS011;20043;50.998;4.754;2022-08-19T08:34:12;11.23;;;6.75;;
33714;SDS011;20043;50.998;4.754;2022-08-19T08:36:40;12.20;;;6.13;;
33714;SDS011;20043;50.998;4.754;2022-08-19T08:39:10;9.77;;;5.82;;
33714;SDS011;20043;50.998;4.754;2022-08-19T08:41:50;13.32;;;5.55;;
33714;SDS011;20043;50.998;4.754;2022-08-19T08:44:40;9.18;;;5.45;;
33714;SDS011;20043;50.998;4.754;2022-08-19T08:47:17;13.15;;;5.57;;
33714;SDS011;20043;50.998;4.754;2022-08-19T08:52:21;8.07;;;5.82;;
33714;SDS011;20043;50.998;4.754;2022-08-19T08:54:54;10.20;;;5.53;;
33714;SDS011;20043;50.998;4.754;2022-08-19T08:59:52;10.50;;;5.07;;
33714;SDS011;20043;50.998;4.754;2022-08-19T09:02:19;10.68;;;4.88;;
33714;SDS011;20043;50.998;4.754;2022-08-19T09:04:45;9.40;;;5.30;;
33714;SDS011;20043;50.998;4.754;2022-08-19T09:07:34;7.97;;;4.78;;
33714;SDS011;20043;50.998;4.754;2022-08-19T09:13:14;8.07;;;4.28;;
33714;SDS011;20043;50.998;4.754;2022-08-19T09:15:45;9.75;;;4.93;;
33714;SDS011;20043;50.998;4.754;2022-08-19T09:18:15;10.43;;;4.00;;
33714;SDS011;20043;50.998;4.754;2022-08-19T09:20:42;6.53;;;4.65;;
33714;SDS011;20043;50.998;4.754;2022-08-19T09:23:07;6.50;;;4.22;;
33714;SDS011;20043;50.998;4.754;2022-08-19T09:25:34;10.27;;;4.10;;
33714;SDS011;20043;50.998;4.754;2022-08-19T09:28:00;12.18;;;4.43;;
33714;SDS011;20043;50.998;4.754;2022-08-19T09:30:29;13.10;;;4.43;;
33714;SDS011;20043;50.998;4.754;2022-08-19T09:32:59;8.50;;;3.58;;
33714;SDS011;20043;50.998;4.754;2022-08-19T09:35:26;12.82;;;4.00;;
33714;SDS011;20043;50.998;4.754;2022-08-19T09:37:53;8.07;;;3.80;;
33714;SDS011;20043;50.998;4.754;2022-08-19T09:40:19;6.07;;;3.58;;
33714;SDS011;20043;50.998;4.754;2022-08-19T09:42:45;9.48;;;3.80;;
33714;SDS011;20043;50.998;4.754;2022-08-19T09:45:12;6.68;;;3.40;;
33714;SDS011;20043;50.998;4.754;2022-08-19T09:47:39;8.68;;;3.75;;
33714;SDS011;20043;50.998;4.754;2022-08-19T09:50:05;8.88;;;4.03;;
33714;SDS011;20043;50.998;4.754;2022-08-19T09:52:33;10.70;;;4.40;;
33714;SDS011;20043;50.998;4.754;2022-08-19T09:55:02;11.48;;;5.45;;
33714;SDS011;20043;50.998;4.754;2022-08-19T09:57:29;10.95;;;5.32;;
33714;SDS011;20043;50.998;4.754;2022-08-19T09:59:54;9.77;;;4.78;;
33714;SDS011;20043;50.998;4.754;2022-08-19T10:02:20;13.60;;;5.43;;
33714;SDS011;20043;50.998;4.754;2022-08-19T10:04:46;10.82;;;4.93;;
33714;SDS011;20043;50.998;4.754;2022-08-19T10:07:30;12.15;;;5.07;;
33714;SDS011;20043;50.998;4.754;2022-08-19T10:09:56;11.48;;;4.63;;
33714;SDS011;20043;50.998;4.754;2022-08-19T10:12:21;12.75;;;4.60;;
33714;SDS011;20043;50.998;4.754;2022-08-19T10:14:47;7.90;;;4.50;;
33714;SDS011;20043;50.998;4.754;2022-08-19T10:17:13;9.27;;;4.10;;
33714;SDS011;20043;50.998;4.754;2022-08-19T10:19:39;8.32;;;4.22;;
33714;SDS011;20043;50.998;4.754;2022-08-19T10:22:06;8.50;;;4.35;;
33714;SDS011;20043;50.998;4.754;2022-08-19T10:24:32;11.20;;;3.67;;
33714;SDS011;20043;50.998;4.754;2022-08-19T10:26:59;9.07;;;4.07;;
33714;SDS011;20043;50.998;4.754;2022-08-19T10:29:28;11.05;;;4.40;;
33714;SDS011;20043;50.998;4.754;2022-08-19T10:31:55;9.50;;;4.53;;
33714;SDS011;20043;50.998;4.754;2022-08-19T10:34:22;12.48;;;4.97;;
33714;SDS011;20043;50.998;4.754;2022-08-19T10:36:48;7.97;;;4.57;;
33714;SDS011;20043;50.998;4.754;2022-08-19T10:39:14;7.28;;;4.47;;
33714;SDS011;20043;50.998;4.754;2022-08-19T10:41:40;10.57;;;5.57;;
33714;SDS011;20043;50.998;4.754;2022-08-19T10:44:09;9.95;;;4.35;;
33714;SDS011;20043;50.998;4.754;2022-08-19T10:46:37;10.20;;;4.35;;
33714;SDS011;20043;50.998;4.754;2022-08-19T10:49:09;9.63;;;4.70;;
33714;SDS011;20043;50.998;4.754;2022-08-19T10:51:36;9.45;;;4.95;;
33714;SDS011;20043;50.998;4.754;2022-08-19T10:54:21;12.73;;;5.63;;
33714;SDS011;20043;50.998;4.754;2022-08-19T10:56:47;11.73;;;5.57;;
33714;SDS011;20043;50.998;4.754;2022-08-19T10:59:16;10.35;;;5.32;;
33714;SDS011;20043;50.998;4.754;2022-08-19T11:01:47;7.40;;;3.92;;
33714;SDS011;20043;50.998;4.754;2022-08-19T11:04:14;7.35;;;4.18;;
33714;SDS011;20043;50.998;4.754;2022-08-19T11:06:42;8.63;;;4.00;;
33714;SDS011;20043;50.998;4.754;2022-08-19T11:09:13;12.82;;;4.90;;
33714;SDS011;20043;50.998;4.754;2022-08-19T11:11:40;10.05;;;4.40;;
33714;SDS011;20043;50.998;4.754;2022-08-19T11:14:07;11.00;;;4.45;;
33714;SDS011;20043;50.998;4.754;2022-08-19T11:16:35;6.47;;;4.05;;
33714;SDS011;20043;50.998;4.754;2022-08-19T11:19:02;8.82;;;4.50;;
33714;SDS011;20043;50.998;4.754;2022-08-19T11:21:30;9.82;;;4.10;;
33714;SDS011;20043;50.998;4.754;2022-08-19T11:23:59;7.85;;;3.40;;
33714;SDS011;20043;50.998;4.754;2022-08-19T11:26:26;7.72;;;3.67;;
33714;SDS011;20043;50.998;4.754;2022-08-19T11:28:52;6.35;;;4.32;;
33714;SDS011;20043;50.998;4.754;2022-08-19T11:31:20;10.60;;;4.60;;
33714;SDS011;20043;50.998;4.754;2022-08-19T11:33:47;7.40;;;4.25;;
33714;SDS011;20043;50.998;4.754;2022-08-19T11:36:17;7.95;;;4.43;;
33714;SDS011;20043;50.998;4.754;2022-08-19T11:38:44;7.05;;;4.00;;
33714;SDS011;20043;50.998;4.754;2022-08-19T11:41:10;7.32;;;4.07;;
33714;SDS011;20043;50.998;4.754;2022-08-19T11:43:36;8.68;;;4.47;;
33714;SDS011;20043;50.998;4.754;2022-08-19T11:46:06;10.98;;;4.20;;
33714;SDS011;20043;50.998;4.754;2022-08-19T11:48:33;4.57;;;3.70;;
33714;SDS011;20043;50.998;4.754;2022-08-19T11:50:59;7.55;;;3.80;;
33714;SDS011;20043;50.998;4.754;2022-08-19T11:53:31;9.27;;;3.58;;
33714;SDS011;20043;50.998;4.754;2022-08-19T11:55:57;11.25;;;3.63;;
33714;SDS011;20043;50.998;4.754;2022-08-19T11:58:23;6.20;;;3.10;;
33714;SDS011;20043;50.998;4.754;2022-08-19T12:00:49;7.90;;;2.80;;
33714;SDS011;20043;50.998;4.754;2022-08-19T12:03:16;6.90;;;2.90;;
33714;SDS011;20043;50.998;4.754;2022-08-19T12:05:43;6.03;;;2.75;;
33714;SDS011;20043;50.998;4.754;2022-08-19T12:08:16;4.97;;;2.95;;
33714;SDS011;20043;50.998;4.754;2022-08-19T12:10:56;6.75;;;2.88;;
33714;SDS011;20043;50.998;4.754;2022-08-19T12:13:22;7.60;;;3.00;;
33714;SDS011;20043;50.998;4.754;2022-08-19T12:15:47;7.03;;;2.95;;
33714;SDS011;20043;50.998;4.754;2022-08-19T12:18:13;8.98;;;3.05;;
33714;SDS011;20043;50.998;4.754;2022-08-19T12:20:39;5.38;;;3.00;;
33714;SDS011;20043;50.998;4.754;2022-08-19T12:23:08;7.32;;;3.47;;
33714;SDS011;20043;50.998;4.754;2022-08-19T12:25:35;5.00;;;3.30;;
33714;SDS011;20043;50.998;4.754;2022-08-19T12:28:01;7.15;;;3.60;;
33714;SDS011;20043;50.998;4.754;2022-08-19T12:30:27;5.88;;;3.42;;
33714;SDS011;20043;50.998;4.754;2022-08-19T12:32:54;7.90;;;4.05;;
33714;SDS011;20043;50.998;4.754;2022-08-19T12:35:20;7.05;;;4.07;;
33714;SDS011;20043;50.998;4.754;2022-08-19T12:37:46;5.80;;;3.58;;
33714;SDS011;20043;50.998;4.754;2022-08-19T12:40:13;5.75;;;3.17;;
33714;SDS011;20043;50.998;4.754;2022-08-19T12:42:40;4.70;;;3.00;;
33714;SDS011;20043;50.998;4.754;2022-08-19T12:45:09;7.05;;;3.30;;
33714;SDS011;20043;50.998;4.754;2022-08-19T12:47:36;4.82;;;2.83;;
33714;SDS011;20043;50.998;4.754;2022-08-19T12:50:02;5.13;;;2.50;;
33714;SDS011;20043;50.998;4.754;2022-08-19T12:52:29;5.28;;;2.30;;
33714;SDS011;20043;50.998;4.754;2022-08-19T12:54:55;3.00;;;2.10;;
33714;SDS011;20043;50.998;4.754;2022-08-19T12:57:23;5.10;;;2.40;;
33714;SDS011;20043;50.998;4.754;2022-08-19T12:59:53;3.47;;;2.28;;
33714;SDS011;20043;50.998;4.754;2022-08-19T13:02:19;4.72;;;2.50;;
33714;SDS011;20043;50.998;4.754;2022-08-19T13:04:46;6.72;;;2.53;;
33714;SDS011;20043;50.998;4.754;2022-08-19T13:07:12;7.15;;;2.70;;
33714;SDS011;20043;50.998;4.754;2022-08-19T13:09:37;9.02;;;2.53;;
33714;SDS011;20043;50.998;4.754;2022-08-19T13:12:06;6.40;;;2.80;;
33714;SDS011;20043;50.998;4.754;2022-08-19T13:14:37;6.38;;;4.22;;
33714;SDS011;20043;50.998;4.754;2022-08-19T13:17:05;4.65;;;2.95;;
33714;SDS011;20043;50.998;4.754;2022-08-19T13:19:31;9.48;;;3.92;;
33714;SDS011;20043;50.998;4.754;2022-08-19T13:21:57;8.57;;;3.40;;
33714;SDS011;20043;50.998;4.754;2022-08-19T13:24:23;5.93;;;3.83;;
33714;SDS011;20043;50.998;4.754;2022-08-19T13:26:50;12.40;;;4.68;;
33714;SDS011;20043;50.998;4.754;2022-08-19T13:29:15;6.72;;;4.53;;
33714;SDS011;20043;50.998;4.754;2022-08-19T13:31:59;5.85;;;4.95;;
33714;SDS011;20043;50.998;4.754;2022-08-19T13:34:43;6.15;;;4.70;;
33714;SDS011;20043;50.998;4.754;2022-08-19T13:37:11;5.55;;;4.40;;
33714;SDS011;20043;50.998;4.754;2022-08-19T13:39:37;4.65;;;3.70;;
33714;SDS011;20043;50.998;4.754;2022-08-19T13:42:03;7.18;;;4.60;;
33714;SDS011;20043;50.998;4.754;2022-08-19T13:44:29;5.20;;;4.60;;
33714;SDS011;20043;50.998;4.754;2022-08-19T13:47:00;9.25;;;5.00;;
33714;SDS011;20043;50.998;4.754;2022-08-19T13:49:30;5.28;;;4.70;;
33714;SDS011;20043;50.998;4.754;2022-08-19T13:51:56;5.57;;;4.80;;
33714;SDS011;20043;50.998;4.754;2022-08-19T13:54:22;6.63;;;4.45;;
33714;SDS011;20043;50.998;4.754;2022-08-19T13:56:48;6.75;;;4.25;;
33714;SDS011;20043;50.998;4.754;2022-08-19T13:59:14;11.00;;;4.03;;
33714;SDS011;20043;50.998;4.754;2022-08-19T14:01:39;10.07;;;4.13;;
33714;SDS011;20043;50.998;4.754;2022-08-19T14:04:06;5.10;;;3.30;;
33714;SDS011;20043;50.998;4.754;2022-08-19T14:06:32;5.97;;;3.17;;
33714;SDS011;20043;50.998;4.754;2022-08-19T14:08:58;4.93;;;3.00;;
33714;SDS011;20043;50.998;4.754;2022-08-19T14:11:24;4.85;;;2.95;;
33714;SDS011;20043;50.998;4.754;2022-08-19T14:13:51;3.42;;;3.08;;
33714;SDS011;20043;50.998;4.754;2022-08-19T14:16:16;7.65;;;3.13;;
33714;SDS011;20043;50.998;4.754;2022-08-19T14:18:42;5.22;;;3.00;;
33714;SDS011;20043;50.998;4.754;2022-08-19T14:21:14;12.32;;;3.10;;
33714;SDS011;20043;50.998;4.754;2022-08-19T14:23:45;6.45;;;2.80;;
33714;SDS011;20043;50.998;4.754;2022-08-19T14:26:12;6.10;;;2.30;;
33714;SDS011;20043;50.998;4.754;2022-08-19T14:28:40;3.13;;;1.85;;
33714;SDS011;20043;50.998;4.754;2022-08-19T14:31:07;4.13;;;1.75;;
33714;SDS011;20043;50.998;4.754;2022-08-19T14:33:34;1.92;;;1.50;;
33714;SDS011;20043;50.998;4.754;2022-08-19T14:35:59;3.45;;;1.40;;
33714;SDS011;20043;50.998;4.754;2022-08-19T14:38:25;2.00;;;1.35;;
33714;SDS011;20043;50.998;4.754;2022-08-19T14:40:51;4.93;;;1.42;;
33714;SDS011;20043;50.998;4.754;2022-08-19T14:43:17;2.28;;;1.63;;
33714;SDS011;20043;50.998;4.754;2022-08-19T14:45:44;4.60;;;1.50;;
33714;SDS011;20043;50.998;4.754;2022-08-19T14:48:10;2.53;;;1.40;;